sensor_id;sensor_type;location;lat;lon;timestamp;P1;durP1;ratioP1;P2;durP2;ratioP2
75499;SDS011;64076;51.466;7.260;2023-02-20T00:00:47;6.57;;;5.67;;
75499;SDS011;64076;51.466;7.260;2023-02-20T00:03:14;8.25;;;6.20;;
75499;SDS011;64076;51.466;7.260;2023-02-20T00:05:40;7.17;;;5.73;;
75499;SDS011;64076;51.466;7.260;2023-02-20T00:08:05;7.05;;;5.53;;
75499;SDS011;64076;51.466;7.260;2023-02-20T00:10:31;7.10;;;5.70;;
75499;SDS011;64076;51.466;7.260;2023-02-20T00:12:57;7.57;;;5.50;;
75499;SDS011;64076;51.466;7.260;2023-02-20T00:15:22;8.10;;;6.07;;
75499;SDS011;64076;51.466;7.260;2023-02-20T00:17:48;7.20;;;5.57;;
75499;SDS011;64076;51.466;7.260;2023-02-20T00:20:18;6.80;;;5.72;;
75499;SDS011;64076;51.466;7.260;2023-02-20T00:22:45;7.43;;;5.67;;
75499;SDS011;64076;51.466;7.260;2023-02-20T00:25:15;7.63;;;5.95;;
75499;SDS011;64076;51.466;7.260;2023-02-20T00:27:42;7.68;;;5.57;;
75499;SDS011;64076;51.466;7.260;2023-02-20T00:30:14;6.78;;;5.35;;
75499;SDS011;64076;51.466;7.260;2023-02-20T00:32:47;7.40;;;5.85;;
75499;SDS011;64076;51.466;7.260;2023-02-20T00:35:15;6.97;;;6.00;;
75499;SDS011;64076;51.466;7.260;2023-02-20T00:37:42;6.47;;;5.57;;
75499;SDS011;64076;51.466;7.260;2023-02-20T00:40:08;8.30;;;6.28;;
75499;SDS011;64076;51.466;7.260;2023-02-20T00:42:34;7.03;;;5.68;;
75499;SDS011;64076;51.466;7.260;2023-02-20T00:44:59;7.77;;;5.80;;
75499;SDS011;64076;51.466;7.260;2023-02-20T00:47:25;7.45;;;5.50;;
75499;SDS011;64076;51.466;7.260;2023-02-20T00:49:51;6.60;;;5.40;;
75499;SDS011;64076;51.466;7.260;2023-02-20T00:52:16;7.65;;;5.38;;
75499;SDS011;64076;51.466;7.260;2023-02-20T00:54:42;7.17;;;5.37;;
75499;SDS011;64076;51.466;7.260;2023-02-20T00:57:07;6.73;;;5.23;;
75499;SDS011;64076;51.466;7.260;2023-02-20T00:59:33;7.60;;;5.93;;
75499;SDS011;64076;51.466;7.260;2023-02-20T01:01:59;7.17;;;5.83;;
75499;SDS011;64076;51.466;7.260;2023-02-20T01:04:24;7.70;;;5.90;;
75499;SDS011;64076;51.466;7.260;2023-02-20T01:06:50;7.07;;;5.83;;
75499;SDS011;64076;51.466;7.260;2023-02-20T01:09:15;8.13;;;6.37;;
75499;SDS011;64076;51.466;7.260;2023-02-20T01:11:42;7.68;;;5.95;;
75499;SDS011;64076;51.466;7.260;2023-02-20T01:14:08;8.10;;;6.00;;
75499;SDS011;64076;51.466;7.260;2023-02-20T01:16:34;7.83;;;6.00;;
75499;SDS011;64076;51.466;7.260;2023-02-20T01:18:59;6.83;;;5.77;;
75499;SDS011;64076;51.466;7.260;2023-02-20T01:21:25;8.15;;;6.28;;
75499;SDS011;64076;51.466;7.260;2023-02-20T01:23:50;7.60;;;6.00;;
75499;SDS011;64076;51.466;7.260;2023-02-20T01:26:16;7.17;;;5.40;;
75499;SDS011;64076;51.466;7.260;2023-02-20T01:28:45;7.00;;;6.00;;
75499;SDS011;64076;51.466;7.260;2023-02-20T01:31:14;7.40;;;6.20;;
75499;SDS011;64076;51.466;7.260;2023-02-20T01:33:40;7.32;;;6.13;;
75499;SDS011;64076;51.466;7.260;2023-02-20T01:36:07;7.13;;;5.83;;
75499;SDS011;64076;51.466;7.260;2023-02-20T01:38:33;7.80;;;6.30;;
75499;SDS011;64076;51.466;7.260;2023-02-20T01:40:59;7.93;;;6.20;;
75499;SDS011;64076;51.466;7.260;2023-02-20T01:43:24;7.67;;;6.23;;
75499;SDS011;64076;51.466;7.260;2023-02-20T01:45:50;8.02;;;6.30;;
75499;SDS011;64076;51.466;7.260;2023-02-20T01:48:20;8.00;;;6.07;;
75499;SDS011;64076;51.466;7.260;2023-02-20T01:50:47;7.40;;;5.95;;
75499;SDS011;64076;51.466;7.260;2023-02-20T01:53:17;8.77;;;6.07;;
75499;SDS011;64076;51.466;7.260;2023-02-20T01:55:47;7.35;;;6.20;;
75499;SDS011;64076;51.466;7.260;2023-02-20T01:58:27;8.95;;;6.57;;
75499;SDS011;64076;51.466;7.260;2023-02-20T02:01:00;8.27;;;5.90;;
75499;SDS011;64076;51.466;7.260;2023-02-20T02:03:30;8.30;;;6.00;;
75499;SDS011;64076;51.466;7.260;2023-02-20T02:05:59;7.97;;;6.90;;
75499;SDS011;64076;51.466;7.260;2023-02-20T02:08:28;8.27;;;6.13;;
75499;SDS011;64076;51.466;7.260;2023-02-20T02:10:56;7.82;;;6.43;;
75499;SDS011;64076;51.466;7.260;2023-02-20T02:13:32;9.77;;;6.40;;
75499;SDS011;64076;51.466;7.260;2023-02-20T02:18:45;8.07;;;6.50;;
75499;SDS011;64076;51.466;7.260;2023-02-20T02:24:21;8.52;;;6.25;;
75499;SDS011;64076;51.466;7.260;2023-02-20T02:27:28;8.47;;;6.37;;
75499;SDS011;64076;51.466;7.260;2023-02-20T02:30:27;9.20;;;6.65;;
75499;SDS011;64076;51.466;7.260;2023-02-20T02:33:20;7.80;;;6.30;;
75499;SDS011;64076;51.466;7.260;2023-02-20T02:42:00;7.63;;;6.30;;
75499;SDS011;64076;51.466;7.260;2023-02-20T02:44:38;8.63;;;6.80;;
75499;SDS011;64076;51.466;7.260;2023-02-20T02:52:20;8.07;;;6.68;;
75499;SDS011;64076;51.466;7.260;2023-02-20T02:55:05;7.77;;;6.27;;
75499;SDS011;64076;51.466;7.260;2023-02-20T02:57:32;8.23;;;6.47;;
75499;SDS011;64076;51.466;7.260;2023-02-20T02:59:59;9.63;;;7.38;;
75499;SDS011;64076;51.466;7.260;2023-02-20T03:02:30;8.10;;;6.78;;
75499;SDS011;64076;51.466;7.260;2023-02-20T03:04:59;9.60;;;7.40;;
75499;SDS011;64076;51.466;7.260;2023-02-20T03:07:28;8.32;;;7.00;;
75499;SDS011;64076;51.466;7.260;2023-02-20T03:09:59;9.43;;;7.32;;
75499;SDS011;64076;51.466;7.260;2023-02-20T03:12:29;8.82;;;7.22;;
75499;SDS011;64076;51.466;7.260;2023-02-20T03:14:59;8.05;;;6.85;;
75499;SDS011;64076;51.466;7.260;2023-02-20T03:18:01;8.63;;;6.67;;
75499;SDS011;64076;51.466;7.260;2023-02-20T03:20:38;8.30;;;6.72;;
75499;SDS011;64076;51.466;7.260;2023-02-20T03:23:11;9.50;;;6.93;;
75499;SDS011;64076;51.466;7.260;2023-02-20T03:25:44;9.75;;;7.32;;
75499;SDS011;64076;51.466;7.260;2023-02-20T03:28:28;8.23;;;7.03;;
75499;SDS011;64076;51.466;7.260;2023-02-20T03:31:04;7.90;;;6.37;;
75499;SDS011;64076;51.466;7.260;2023-02-20T03:33:46;10.10;;;7.60;;
75499;SDS011;64076;51.466;7.260;2023-02-20T03:36:39;9.13;;;7.18;;
75499;SDS011;64076;51.466;7.260;2023-02-20T03:39:29;9.73;;;7.28;;
75499;SDS011;64076;51.466;7.260;2023-02-20T03:42:18;8.32;;;6.90;;
75499;SDS011;64076;51.466;7.260;2023-02-20T03:45:04;9.20;;;6.97;;
75499;SDS011;64076;51.466;7.260;2023-02-20T03:47:32;9.90;;;7.63;;
75499;SDS011;64076;51.466;7.260;2023-02-20T03:50:00;9.27;;;7.22;;
75499;SDS011;64076;51.466;7.260;2023-02-20T03:52:26;9.73;;;7.40;;
75499;SDS011;64076;51.466;7.260;2023-02-20T03:54:52;9.33;;;7.33;;
75499;SDS011;64076;51.466;7.260;2023-02-20T03:57:20;8.93;;;6.97;;
75499;SDS011;64076;51.466;7.260;2023-02-20T03:59:58;10.07;;;7.55;;
75499;SDS011;64076;51.466;7.260;2023-02-20T04:02:30;9.70;;;7.15;;
75499;SDS011;64076;51.466;7.260;2023-02-20T04:05:05;8.63;;;6.63;;
75499;SDS011;64076;51.466;7.260;2023-02-20T04:07:39;8.30;;;6.77;;
75499;SDS011;64076;51.466;7.260;2023-02-20T04:10:12;10.15;;;7.95;;
75499;SDS011;64076;51.466;7.260;2023-02-20T04:12:42;8.57;;;7.18;;
75499;SDS011;64076;51.466;7.260;2023-02-20T04:15:09;10.10;;;7.50;;
75499;SDS011;64076;51.466;7.260;2023-02-20T04:17:40;9.73;;;7.55;;
75499;SDS011;64076;51.466;7.260;2023-02-20T04:20:12;9.57;;;7.37;;
75499;SDS011;64076;51.466;7.260;2023-02-20T04:22:38;11.90;;;7.50;;
75499;SDS011;64076;51.466;7.260;2023-02-20T04:25:50;10.15;;;7.60;;
75499;SDS011;64076;51.466;7.260;2023-02-20T04:28:11;10.50;;;7.43;;
75499;SDS011;64076;51.466;7.260;2023-02-20T04:30:38;9.73;;;7.50;;
75499;SDS011;64076;51.466;7.260;2023-02-20T04:33:03;9.47;;;7.70;;
75499;SDS011;64076;51.466;7.260;2023-02-20T04:35:29;9.48;;;7.30;;
75499;SDS011;64076;51.466;7.260;2023-02-20T04:37:55;9.60;;;7.33;;
75499;SDS011;64076;51.466;7.260;2023-02-20T04:40:21;9.55;;;7.43;;
75499;SDS011;64076;51.466;7.260;2023-02-20T04:42:48;9.83;;;7.43;;
75499;SDS011;64076;51.466;7.260;2023-02-20T04:45:13;8.77;;;7.10;;
75499;SDS011;64076;51.466;7.260;2023-02-20T04:47:41;9.20;;;7.57;;
75499;SDS011;64076;51.466;7.260;2023-02-20T04:50:07;9.73;;;8.03;;
75499;SDS011;64076;51.466;7.260;2023-02-20T04:52:33;9.52;;;7.55;;
75499;SDS011;64076;51.466;7.260;2023-02-20T04:54:59;9.80;;;8.10;;
75499;SDS011;64076;51.466;7.260;2023-02-20T04:57:24;10.43;;;8.10;;
75499;SDS011;64076;51.466;7.260;2023-02-20T04:59:50;10.47;;;8.30;;
75499;SDS011;64076;51.466;7.260;2023-02-20T05:02:16;9.15;;;7.60;;
75499;SDS011;64076;51.466;7.260;2023-02-20T05:04:41;9.90;;;7.50;;
75499;SDS011;64076;51.466;7.260;2023-02-20T05:07:07;9.83;;;7.67;;
75499;SDS011;64076;51.466;7.260;2023-02-20T05:09:32;9.82;;;7.97;;
75499;SDS011;64076;51.466;7.260;2023-02-20T05:11:58;9.53;;;7.80;;
75499;SDS011;64076;51.466;7.260;2023-02-20T05:14:23;8.87;;;7.53;;
75499;SDS011;64076;51.466;7.260;2023-02-20T05:16:49;9.73;;;8.13;;
75499;SDS011;64076;51.466;7.260;2023-02-20T05:19:17;9.57;;;7.90;;
75499;SDS011;64076;51.466;7.260;2023-02-20T05:21:43;9.40;;;7.57;;
75499;SDS011;64076;51.466;7.260;2023-02-20T05:24:27;10.55;;;7.70;;
75499;SDS011;64076;51.466;7.260;2023-02-20T05:26:53;9.67;;;7.57;;
75499;SDS011;64076;51.466;7.260;2023-02-20T05:29:20;9.68;;;7.57;;
75499;SDS011;64076;51.466;7.260;2023-02-20T05:31:46;9.70;;;7.40;;
75499;SDS011;64076;51.466;7.260;2023-02-20T05:34:11;9.37;;;7.30;;
75499;SDS011;64076;51.466;7.260;2023-02-20T05:36:37;8.82;;;7.32;;
75499;SDS011;64076;51.466;7.260;2023-02-20T05:39:02;10.13;;;8.00;;
75499;SDS011;64076;51.466;7.260;2023-02-20T05:41:29;9.95;;;7.43;;
75499;SDS011;64076;51.466;7.260;2023-02-20T05:43:54;10.97;;;7.63;;
75499;SDS011;64076;51.466;7.260;2023-02-20T05:46:22;8.70;;;7.32;;
75499;SDS011;64076;51.466;7.260;2023-02-20T05:48:48;9.63;;;7.45;;
75499;SDS011;64076;51.466;7.260;2023-02-20T05:51:22;9.32;;;7.22;;
75499;SDS011;64076;51.466;7.260;2023-02-20T05:53:49;12.45;;;7.30;;
75499;SDS011;64076;51.466;7.260;2023-02-20T05:56:15;9.73;;;7.50;;
75499;SDS011;64076;51.466;7.260;2023-02-20T05:58:42;8.43;;;6.85;;
75499;SDS011;64076;51.466;7.260;2023-02-20T06:01:08;8.55;;;6.93;;
75499;SDS011;64076;51.466;7.260;2023-02-20T06:03:40;9.10;;;7.30;;
75499;SDS011;64076;51.466;7.260;2023-02-20T06:06:05;9.68;;;7.57;;
75499;SDS011;64076;51.466;7.260;2023-02-20T06:08:31;9.13;;;7.03;;
75499;SDS011;64076;51.466;7.260;2023-02-20T06:10:57;9.37;;;7.27;;
75499;SDS011;64076;51.466;7.260;2023-02-20T06:13:22;9.13;;;7.70;;
75499;SDS011;64076;51.466;7.260;2023-02-20T06:15:48;9.43;;;7.43;;
75499;SDS011;64076;51.466;7.260;2023-02-20T06:18:13;9.53;;;7.23;;
75499;SDS011;64076;51.466;7.260;2023-02-20T06:20:39;8.77;;;6.80;;
75499;SDS011;64076;51.466;7.260;2023-02-20T06:23:04;9.70;;;7.10;;
75499;SDS011;64076;51.466;7.260;2023-02-20T06:25:30;9.77;;;6.93;;
75499;SDS011;64076;51.466;7.260;2023-02-20T06:27:55;8.65;;;6.90;;
75499;SDS011;64076;51.466;7.260;2023-02-20T06:30:21;8.53;;;7.13;;
75499;SDS011;64076;51.466;7.260;2023-02-20T06:32:46;9.57;;;7.20;;
75499;SDS011;64076;51.466;7.260;2023-02-20T06:35:12;9.25;;;7.30;;
75499;SDS011;64076;51.466;7.260;2023-02-20T06:37:37;8.93;;;7.20;;
75499;SDS011;64076;51.466;7.260;2023-02-20T06:40:03;8.50;;;7.07;;
75499;SDS011;64076;51.466;7.260;2023-02-20T06:42:29;9.13;;;6.95;;
75499;SDS011;64076;51.466;7.260;2023-02-20T06:44:55;10.03;;;7.67;;
75499;SDS011;64076;51.466;7.260;2023-02-20T06:47:20;8.38;;;6.95;;
75499;SDS011;64076;51.466;7.260;2023-02-20T06:49:46;8.80;;;7.10;;
75499;SDS011;64076;51.466;7.260;2023-02-20T06:52:11;8.73;;;6.80;;
75499;SDS011;64076;51.466;7.260;2023-02-20T06:54:37;8.43;;;6.95;;
75499;SDS011;64076;51.466;7.260;2023-02-20T06:57:04;8.48;;;6.93;;
75499;SDS011;64076;51.466;7.260;2023-02-20T06:59:30;10.10;;;6.97;;
75499;SDS011;64076;51.466;7.260;2023-02-20T07:01:56;8.80;;;7.13;;
75499;SDS011;64076;51.466;7.260;2023-02-20T07:04:23;9.45;;;6.70;;
75499;SDS011;64076;51.466;7.260;2023-02-20T07:06:50;9.43;;;7.30;;
75499;SDS011;64076;51.466;7.260;2023-02-20T07:09:16;10.07;;;7.13;;
75499;SDS011;64076;51.466;7.260;2023-02-20T07:11:41;9.00;;;6.88;;
75499;SDS011;64076;51.466;7.260;2023-02-20T07:14:07;9.77;;;7.43;;
75499;SDS011;64076;51.466;7.260;2023-02-20T07:16:33;9.60;;;7.32;;
75499;SDS011;64076;51.466;7.260;2023-02-20T07:18:58;8.90;;;6.77;;
75499;SDS011;64076;51.466;7.260;2023-02-20T07:21:25;9.27;;;7.70;;
75499;SDS011;64076;51.466;7.260;2023-02-20T07:23:51;8.68;;;6.95;;
75499;SDS011;64076;51.466;7.260;2023-02-20T07:26:24;9.40;;;7.35;;
75499;SDS011;64076;51.466;7.260;2023-02-20T07:28:51;10.80;;;7.82;;
75499;SDS011;64076;51.466;7.260;2023-02-20T07:31:17;9.20;;;7.03;;
75499;SDS011;64076;51.466;7.260;2023-02-20T07:33:43;9.93;;;7.13;;
75499;SDS011;64076;51.466;7.260;2023-02-20T07:36:09;9.80;;;7.57;;
75499;SDS011;64076;51.466;7.260;2023-02-20T07:38:35;9.15;;;6.85;;
75499;SDS011;64076;51.466;7.260;2023-02-20T07:41:01;8.52;;;6.70;;
75499;SDS011;64076;51.466;7.260;2023-02-20T07:43:26;9.13;;;7.07;;
75499;SDS011;64076;51.466;7.260;2023-02-20T07:45:52;8.67;;;7.10;;
75499;SDS011;64076;51.466;7.260;2023-02-20T07:48:17;10.25;;;7.63;;
75499;SDS011;64076;51.466;7.260;2023-02-20T07:50:43;8.57;;;6.70;;
75499;SDS011;64076;51.466;7.260;2023-02-20T07:53:12;10.27;;;7.30;;
75499;SDS011;64076;51.466;7.260;2023-02-20T07:55:38;8.63;;;7.00;;
75499;SDS011;64076;51.466;7.260;2023-02-20T07:58:04;9.63;;;7.90;;
75499;SDS011;64076;51.466;7.260;2023-02-20T08:00:30;9.60;;;8.07;;
75499;SDS011;64076;51.466;7.260;2023-02-20T08:02:55;9.70;;;7.60;;
75499;SDS011;64076;51.466;7.260;2023-02-20T08:05:23;8.87;;;7.17;;
75499;SDS011;64076;51.466;7.260;2023-02-20T08:07:48;9.02;;;7.60;;
75499;SDS011;64076;51.466;7.260;2023-02-20T08:10:16;9.35;;;7.47;;
75499;SDS011;64076;51.466;7.260;2023-02-20T08:12:44;9.07;;;7.20;;
75499;SDS011;64076;51.466;7.260;2023-02-20T08:15:10;8.30;;;7.15;;
75499;SDS011;64076;51.466;7.260;2023-02-20T08:17:36;9.93;;;7.13;;
75499;SDS011;64076;51.466;7.260;2023-02-20T08:20:06;10.45;;;7.70;;
75499;SDS011;64076;51.466;7.260;2023-02-20T08:22:32;9.20;;;7.38;;
75499;SDS011;64076;51.466;7.260;2023-02-20T08:24:59;9.43;;;7.63;;
75499;SDS011;64076;51.466;7.260;2023-02-20T08:27:24;10.23;;;7.67;;
75499;SDS011;64076;51.466;7.260;2023-02-20T08:29:51;9.57;;;8.00;;
75499;SDS011;64076;51.466;7.260;2023-02-20T08:32:17;10.63;;;7.57;;
75499;SDS011;64076;51.466;7.260;2023-02-20T08:34:43;9.17;;;7.17;;
75499;SDS011;64076;51.466;7.260;2023-02-20T08:37:08;9.48;;;7.50;;
75499;SDS011;64076;51.466;7.260;2023-02-20T08:39:34;9.70;;;7.63;;
75499;SDS011;64076;51.466;7.260;2023-02-20T08:42:00;9.15;;;7.70;;
75499;SDS011;64076;51.466;7.260;2023-02-20T08:44:26;9.05;;;7.30;;
75499;SDS011;64076;51.466;7.260;2023-02-20T08:46:52;9.20;;;7.00;;
75499;SDS011;64076;51.466;7.260;2023-02-20T08:49:17;9.67;;;7.83;;
75499;SDS011;64076;51.466;7.260;2023-02-20T08:51:44;9.32;;;7.55;;
75499;SDS011;64076;51.466;7.260;2023-02-20T08:54:10;8.77;;;7.45;;
75499;SDS011;64076;51.466;7.260;2023-02-20T08:56:36;10.35;;;7.40;;
75499;SDS011;64076;51.466;7.260;2023-02-20T08:59:02;10.83;;;7.70;;
75499;SDS011;64076;51.466;7.260;2023-02-20T09:01:27;9.07;;;7.43;;
75499;SDS011;64076;51.466;7.260;2023-02-20T09:03:53;9.13;;;7.37;;
75499;SDS011;64076;51.466;7.260;2023-02-20T09:06:19;8.52;;;7.13;;
75499;SDS011;64076;51.466;7.260;2023-02-20T09:08:45;9.73;;;7.77;;
75499;SDS011;64076;51.466;7.260;2023-02-20T09:11:11;9.60;;;7.82;;
75499;SDS011;64076;51.466;7.260;2023-02-20T09:13:42;9.87;;;7.70;;
75499;SDS011;64076;51.466;7.260;2023-02-20T09:16:09;9.52;;;7.78;;
75499;SDS011;64076;51.466;7.260;2023-02-20T09:18:35;9.43;;;7.60;;
75499;SDS011;64076;51.466;7.260;2023-02-20T09:21:00;9.02;;;7.72;;
75499;SDS011;64076;51.466;7.260;2023-02-20T09:23:26;9.53;;;7.60;;
75499;SDS011;64076;51.466;7.260;2023-02-20T09:25:51;11.50;;;8.07;;
75499;SDS011;64076;51.466;7.260;2023-02-20T09:28:18;10.90;;;8.13;;
75499;SDS011;64076;51.466;7.260;2023-02-20T09:30:43;9.70;;;7.85;;
75499;SDS011;64076;51.466;7.260;2023-02-20T09:33:09;9.53;;;7.63;;
75499;SDS011;64076;51.466;7.260;2023-02-20T09:35:35;9.85;;;7.53;;
75499;SDS011;64076;51.466;7.260;2023-02-20T09:38:01;9.47;;;7.43;;
75499;SDS011;64076;51.466;7.260;2023-02-20T09:40:27;9.80;;;7.80;;
75499;SDS011;64076;51.466;7.260;2023-02-20T09:45:44;9.27;;;7.77;;
75499;SDS011;64076;51.466;7.260;2023-02-20T09:48:34;10.00;;;8.02;;
75499;SDS011;64076;51.466;7.260;2023-02-20T09:51:20;9.32;;;7.70;;
75499;SDS011;64076;51.466;7.260;2023-02-20T09:56:43;9.15;;;8.15;;
75499;SDS011;64076;51.466;7.260;2023-02-20T10:01:45;9.80;;;7.63;;
75499;SDS011;64076;51.466;7.260;2023-02-20T10:04:37;10.18;;;8.15;;
75499;SDS011;64076;51.466;7.260;2023-02-20T10:09:43;10.32;;;8.20;;
75499;SDS011;64076;51.466;7.260;2023-02-20T10:12:13;11.37;;;9.10;;
75499;SDS011;64076;51.466;7.260;2023-02-20T10:14:45;11.73;;;7.80;;
75499;SDS011;64076;51.466;7.260;2023-02-20T10:17:22;13.23;;;9.35;;
75499;SDS011;64076;51.466;7.260;2023-02-20T10:19:59;11.32;;;8.20;;
75499;SDS011;64076;51.466;7.260;2023-02-20T10:22:38;16.13;;;9.88;;
75499;SDS011;64076;51.466;7.260;2023-02-20T10:38:10;13.90;;;8.73;;
75499;SDS011;64076;51.466;7.260;2023-02-20T10:40:45;11.88;;;9.38;;
75499;SDS011;64076;51.466;7.260;2023-02-20T10:43:21;10.45;;;8.77;;
75499;SDS011;64076;51.466;7.260;2023-02-20T10:45:54;12.90;;;9.32;;
75499;SDS011;64076;51.466;7.260;2023-02-20T10:48:31;11.77;;;9.18;;
75499;SDS011;64076;51.466;7.260;2023-02-20T10:51:02;11.97;;;9.20;;
75499;SDS011;64076;51.466;7.260;2023-02-20T10:53:35;12.48;;;9.57;;
75499;SDS011;64076;51.466;7.260;2023-02-20T10:56:10;13.25;;;8.80;;
75499;SDS011;64076;51.466;7.260;2023-02-20T11:01:26;12.75;;;9.35;;
75499;SDS011;64076;51.466;7.260;2023-02-20T11:04:00;12.70;;;9.10;;
75499;SDS011;64076;51.466;7.260;2023-02-20T11:06:40;13.82;;;10.13;;
75499;SDS011;64076;51.466;7.260;2023-02-20T11:09:09;13.02;;;9.45;;
75499;SDS011;64076;51.466;7.260;2023-02-20T11:11:35;11.63;;;9.10;;
75499;SDS011;64076;51.466;7.260;2023-02-20T11:14:13;12.80;;;8.82;;
75499;SDS011;64076;51.466;7.260;2023-02-20T11:16:43;11.15;;;8.63;;
75499;SDS011;64076;51.466;7.260;2023-02-20T11:19:29;10.40;;;8.55;;
75499;SDS011;64076;51.466;7.260;2023-02-20T11:22:02;12.95;;;8.98;;
75499;SDS011;64076;51.466;7.260;2023-02-20T11:24:29;11.17;;;8.60;;
75499;SDS011;64076;51.466;7.260;2023-02-20T11:27:18;11.25;;;8.48;;
75499;SDS011;64076;51.466;7.260;2023-02-20T11:29:53;13.32;;;8.77;;
75499;SDS011;64076;51.466;7.260;2023-02-20T11:32:21;11.53;;;8.93;;
75499;SDS011;64076;51.466;7.260;2023-02-20T11:37:40;13.45;;;10.25;;
75499;SDS011;64076;51.466;7.260;2023-02-20T11:40:16;11.27;;;8.55;;
75499;SDS011;64076;51.466;7.260;2023-02-20T11:42:47;10.55;;;8.82;;
75499;SDS011;64076;51.466;7.260;2023-02-20T11:45:27;11.50;;;8.83;;
75499;SDS011;64076;51.466;7.260;2023-02-20T11:48:26;11.32;;;8.57;;
75499;SDS011;64076;51.466;7.260;2023-02-20T11:50:49;11.57;;;8.75;;
75499;SDS011;64076;51.466;7.260;2023-02-20T11:53:29;11.65;;;8.88;;
75499;SDS011;64076;51.466;7.260;2023-02-20T11:56:12;11.52;;;8.65;;
75499;SDS011;64076;51.466;7.260;2023-02-20T11:58:40;13.17;;;9.27;;
75499;SDS011;64076;51.466;7.260;2023-02-20T12:01:10;12.82;;;9.07;;
75499;SDS011;64076;51.466;7.260;2023-02-20T12:03:57;10.95;;;8.90;;
75499;SDS011;64076;51.466;7.260;2023-02-20T12:08:58;13.55;;;9.70;;
75499;SDS011;64076;51.466;7.260;2023-02-20T12:11:26;13.30;;;8.80;;
75499;SDS011;64076;51.466;7.260;2023-02-20T12:13:53;12.45;;;9.18;;
75499;SDS011;64076;51.466;7.260;2023-02-20T12:19:12;12.35;;;9.00;;
75499;SDS011;64076;51.466;7.260;2023-02-20T12:27:20;12.15;;;8.88;;
75499;SDS011;64076;51.466;7.260;2023-02-20T12:30:11;13.40;;;8.82;;
75499;SDS011;64076;51.466;7.260;2023-02-20T12:33:30;10.20;;;8.85;;
75499;SDS011;64076;51.466;7.260;2023-02-20T12:36:00;12.73;;;8.40;;
75499;SDS011;64076;51.466;7.260;2023-02-20T12:38:49;11.57;;;8.87;;
75499;SDS011;64076;51.466;7.260;2023-02-20T12:44:28;11.77;;;9.05;;
75499;SDS011;64076;51.466;7.260;2023-02-20T12:52:24;10.00;;;8.50;;
75499;SDS011;64076;51.466;7.260;2023-02-20T12:55:08;11.98;;;9.60;;
75499;SDS011;64076;51.466;7.260;2023-02-20T13:00:50;10.50;;;8.52;;
75499;SDS011;64076;51.466;7.260;2023-02-20T13:03:21;12.07;;;8.65;;
75499;SDS011;64076;51.466;7.260;2023-02-20T13:06:02;11.83;;;8.93;;
75499;SDS011;64076;51.466;7.260;2023-02-20T13:08:29;11.68;;;9.02;;
75499;SDS011;64076;51.466;7.260;2023-02-20T13:11:00;10.70;;;9.23;;
75499;SDS011;64076;51.466;7.260;2023-02-20T13:16:31;11.60;;;8.43;;
75499;SDS011;64076;51.466;7.260;2023-02-20T13:19:12;12.23;;;8.87;;
75499;SDS011;64076;51.466;7.260;2023-02-20T13:21:44;12.38;;;8.95;;
75499;SDS011;64076;51.466;7.260;2023-02-20T13:26:48;12.45;;;8.40;;
75499;SDS011;64076;51.466;7.260;2023-02-20T13:29:24;10.80;;;8.93;;
75499;SDS011;64076;51.466;7.260;2023-02-20T13:32:26;11.65;;;9.32;;
75499;SDS011;64076;51.466;7.260;2023-02-20T13:34:44;12.30;;;8.88;;
75499;SDS011;64076;51.466;7.260;2023-02-20T13:39:57;10.73;;;8.73;;
75499;SDS011;64076;51.466;7.260;2023-02-20T13:45:47;11.60;;;8.93;;
75499;SDS011;64076;51.466;7.260;2023-02-20T13:53:49;9.95;;;8.23;;
75499;SDS011;64076;51.466;7.260;2023-02-20T13:56:17;11.45;;;8.55;;
75499;SDS011;64076;51.466;7.260;2023-02-20T13:58:44;11.38;;;8.25;;
75499;SDS011;64076;51.466;7.260;2023-02-20T14:01:10;11.57;;;8.68;;
75499;SDS011;64076;51.466;7.260;2023-02-20T14:03:37;10.17;;;8.00;;
75499;SDS011;64076;51.466;7.260;2023-02-20T14:06:08;12.23;;;9.10;;
75499;SDS011;64076;51.466;7.260;2023-02-20T14:08:36;10.55;;;8.40;;
75499;SDS011;64076;51.466;7.260;2023-02-20T14:11:08;11.70;;;8.48;;
75499;SDS011;64076;51.466;7.260;2023-02-20T14:13:48;11.65;;;7.90;;
75499;SDS011;64076;51.466;7.260;2023-02-20T14:19:24;11.73;;;8.30;;
75499;SDS011;64076;51.466;7.260;2023-02-20T14:21:50;9.77;;;7.97;;
75499;SDS011;64076;51.466;7.260;2023-02-20T14:26:46;11.52;;;7.95;;
75499;SDS011;64076;51.466;7.260;2023-02-20T14:29:20;11.77;;;7.87;;
75499;SDS011;64076;51.466;7.260;2023-02-20T14:31:51;9.63;;;7.95;;
75499;SDS011;64076;51.466;7.260;2023-02-20T14:34:28;9.50;;;7.93;;
75499;SDS011;64076;51.466;7.260;2023-02-20T14:42:13;10.77;;;8.10;;
75499;SDS011;64076;51.466;7.260;2023-02-20T14:44:46;10.65;;;7.82;;
75499;SDS011;64076;51.466;7.260;2023-02-20T14:47:14;10.95;;;7.57;;
75499;SDS011;64076;51.466;7.260;2023-02-20T14:49:41;10.63;;;8.40;;
75499;SDS011;64076;51.466;7.260;2023-02-20T14:54:34;11.23;;;7.60;;
75499;SDS011;64076;51.466;7.260;2023-02-20T14:57:01;11.80;;;7.88;;
75499;SDS011;64076;51.466;7.260;2023-02-20T14:59:38;10.93;;;8.02;;
75499;SDS011;64076;51.466;7.260;2023-02-20T15:02:13;10.97;;;7.67;;
75499;SDS011;64076;51.466;7.260;2023-02-20T15:04:46;9.32;;;7.40;;
75499;SDS011;64076;51.466;7.260;2023-02-20T15:07:18;10.25;;;7.72;;
75499;SDS011;64076;51.466;7.260;2023-02-20T15:09:49;9.50;;;6.95;;
75499;SDS011;64076;51.466;7.260;2023-02-20T15:12:31;10.68;;;7.88;;
75499;SDS011;64076;51.466;7.260;2023-02-20T15:15:02;9.97;;;7.80;;
75499;SDS011;64076;51.466;7.260;2023-02-20T15:17:41;10.07;;;7.60;;
75499;SDS011;64076;51.466;7.260;2023-02-20T15:22:43;11.43;;;7.97;;
75499;SDS011;64076;51.466;7.260;2023-02-20T15:28:02;10.37;;;7.57;;
75499;SDS011;64076;51.466;7.260;2023-02-20T15:30:27;10.40;;;8.07;;
75499;SDS011;64076;51.466;7.260;2023-02-20T15:32:53;9.52;;;7.82;;
75499;SDS011;64076;51.466;7.260;2023-02-20T15:35:22;10.70;;;7.95;;
75499;SDS011;64076;51.466;7.260;2023-02-20T15:37:52;11.48;;;8.10;;
75499;SDS011;64076;51.466;7.260;2023-02-20T15:42:47;11.43;;;7.78;;
75499;SDS011;64076;51.466;7.260;2023-02-20T15:45:14;10.73;;;8.23;;
75499;SDS011;64076;51.466;7.260;2023-02-20T15:47:40;9.10;;;7.87;;
75499;SDS011;64076;51.466;7.260;2023-02-20T15:50:06;10.20;;;8.40;;
75499;SDS011;64076;51.466;7.260;2023-02-20T15:52:31;10.07;;;7.82;;
75499;SDS011;64076;51.466;7.260;2023-02-20T15:54:58;9.88;;;7.72;;
75499;SDS011;64076;51.466;7.260;2023-02-20T15:57:25;9.33;;;7.73;;
75499;SDS011;64076;51.466;7.260;2023-02-20T15:59:51;11.15;;;8.55;;
75499;SDS011;64076;51.466;7.260;2023-02-20T16:02:19;10.73;;;8.27;;
75499;SDS011;64076;51.466;7.260;2023-02-20T16:04:47;9.90;;;7.80;;
75499;SDS011;64076;51.466;7.260;2023-02-20T16:07:14;11.05;;;8.85;;
75499;SDS011;64076;51.466;7.260;2023-02-20T16:09:40;10.38;;;8.98;;
75499;SDS011;64076;51.466;7.260;2023-02-20T16:12:06;11.73;;;8.53;;
75499;SDS011;64076;51.466;7.260;2023-02-20T16:14:34;10.93;;;8.57;;
75499;SDS011;64076;51.466;7.260;2023-02-20T16:17:00;10.35;;;8.68;;
75499;SDS011;64076;51.466;7.260;2023-02-20T16:19:25;10.67;;;8.90;;
75499;SDS011;64076;51.466;7.260;2023-02-20T16:21:52;10.30;;;8.85;;
75499;SDS011;64076;51.466;7.260;2023-02-20T16:24:17;10.87;;;8.83;;
75499;SDS011;64076;51.466;7.260;2023-02-20T16:26:45;12.15;;;9.23;;
75499;SDS011;64076;51.466;7.260;2023-02-20T16:29:16;12.70;;;9.43;;
75499;SDS011;64076;51.466;7.260;2023-02-20T16:34:19;10.30;;;8.38;;
75499;SDS011;64076;51.466;7.260;2023-02-20T16:36:46;12.65;;;9.60;;
75499;SDS011;64076;51.466;7.260;2023-02-20T16:39:12;11.07;;;9.50;;
75499;SDS011;64076;51.466;7.260;2023-02-20T16:41:37;12.02;;;8.93;;
75499;SDS011;64076;51.466;7.260;2023-02-20T16:44:10;13.00;;;9.65;;
75499;SDS011;64076;51.466;7.260;2023-02-20T16:46:39;12.10;;;9.33;;
75499;SDS011;64076;51.466;7.260;2023-02-20T16:49:04;12.70;;;9.38;;